sensor_id;sensor_type;location;lat;lon;timestamp;P1;durP1;ratioP1;P2;durP2;ratioP2
3307;SDS011;1666;48.898;9.182;2023-04-15T00:01:20;9.18;;;6.22;;
3307;SDS011;1666;48.898;9.182;2023-04-15T00:03:50;9.52;;;5.93;;
3307;SDS011;1666;48.898;9.182;2023-04-15T00:06:22;14.48;;;6.65;;
3307;SDS011;1666;48.898;9.182;2023-04-15T00:08:52;10.45;;;6.70;;
3307;SDS011;1666;48.898;9.182;2023-04-15T00:11:22;10.43;;;6.43;;
3307;SDS011;1666;48.898;9.182;2023-04-15T00:13:52;12.55;;;6.55;;
3307;SDS011;1666;48.898;9.182;2023-04-15T00:16:25;11.55;;;6.05;;
3307;SDS011;1666;48.898;9.182;2023-04-15T00:18:55;13.52;;;7.07;;
3307;SDS011;1666;48.898;9.182;2023-04-15T00:21:25;10.25;;;7.20;;
3307;SDS011;1666;48.898;9.182;2023-04-15T00:23:55;12.55;;;6.78;;
3307;SDS011;1666;48.898;9.182;2023-04-15T00:26:25;10.80;;;6.88;;
3307;SDS011;1666;48.898;9.182;2023-04-15T00:28:55;9.65;;;6.45;;
3307;SDS011;1666;48.898;9.182;2023-04-15T00:31:28;10.05;;;6.82;;
3307;SDS011;1666;48.898;9.182;2023-04-15T00:33:58;13.35;;;7.20;;
3307;SDS011;1666;48.898;9.182;2023-04-15T00:36:29;12.27;;;7.57;;
3307;SDS011;1666;48.898;9.182;2023-04-15T00:39:00;11.20;;;7.28;;
3307;SDS011;1666;48.898;9.182;2023-04-15T00:41:30;14.18;;;6.75;;
3307;SDS011;1666;48.898;9.182;2023-04-15T00:44:01;11.35;;;6.80;;
3307;SDS011;1666;48.898;9.182;2023-04-15T00:46:34;13.50;;;6.78;;
3307;SDS011;1666;48.898;9.182;2023-04-15T00:49:05;11.85;;;6.35;;
3307;SDS011;1666;48.898;9.182;2023-04-15T00:51:35;9.10;;;6.00;;
3307;SDS011;1666;48.898;9.182;2023-04-15T00:54:06;10.68;;;6.65;;
3307;SDS011;1666;48.898;9.182;2023-04-15T00:56:36;12.05;;;6.82;;
3307;SDS011;1666;48.898;9.182;2023-04-15T00:59:07;10.45;;;6.07;;
3307;SDS011;1666;48.898;9.182;2023-04-15T01:01:40;11.00;;;6.32;;
3307;SDS011;1666;48.898;9.182;2023-04-15T01:04:11;11.07;;;6.78;;
3307;SDS011;1666;48.898;9.182;2023-04-15T01:06:41;11.88;;;6.82;;
3307;SDS011;1666;48.898;9.182;2023-04-15T01:09:11;12.38;;;6.97;;
3307;SDS011;1666;48.898;9.182;2023-04-15T01:11:41;14.00;;;7.53;;
3307;SDS011;1666;48.898;9.182;2023-04-15T01:14:12;10.95;;;6.65;;
3307;SDS011;1666;48.898;9.182;2023-04-15T01:16:45;10.32;;;6.75;;
3307;SDS011;1666;48.898;9.182;2023-04-15T01:19:16;10.80;;;6.88;;
3307;SDS011;1666;48.898;9.182;2023-04-15T01:21:46;9.27;;;6.85;;
3307;SDS011;1666;48.898;9.182;2023-04-15T01:24:17;11.13;;;6.88;;
3307;SDS011;1666;48.898;9.182;2023-04-15T01:26:50;12.63;;;6.60;;
3307;SDS011;1666;48.898;9.182;2023-04-15T01:29:20;14.63;;;7.38;;
3307;SDS011;1666;48.898;9.182;2023-04-15T01:31:50;11.65;;;6.90;;
3307;SDS011;1666;48.898;9.182;2023-04-15T01:34:40;11.35;;;7.22;;
3307;SDS011;1666;48.898;9.182;2023-04-15T01:37:28;13.60;;;6.85;;
3307;SDS011;1666;48.898;9.182;2023-04-15T01:39:58;14.77;;;8.00;;
3307;SDS011;1666;48.898;9.182;2023-04-15T01:42:31;11.60;;;7.15;;
3307;SDS011;1666;48.898;9.182;2023-04-15T01:45:01;12.68;;;7.65;;
3307;SDS011;1666;48.898;9.182;2023-04-15T01:47:31;13.15;;;7.57;;
3307;SDS011;1666;48.898;9.182;2023-04-15T01:50:01;11.10;;;6.53;;
3307;SDS011;1666;48.898;9.182;2023-04-15T01:52:32;12.32;;;6.85;;
3307;SDS011;1666;48.898;9.182;2023-04-15T01:55:02;12.38;;;7.50;;
3307;SDS011;1666;48.898;9.182;2023-04-15T01:57:36;9.85;;;6.63;;
3307;SDS011;1666;48.898;9.182;2023-04-15T02:00:07;12.43;;;7.22;;
3307;SDS011;1666;48.898;9.182;2023-04-15T02:02:37;10.13;;;6.75;;
3307;SDS011;1666;48.898;9.182;2023-04-15T02:05:07;13.25;;;7.40;;
3307;SDS011;1666;48.898;9.182;2023-04-15T02:07:37;14.70;;;8.05;;
3307;SDS011;1666;48.898;9.182;2023-04-15T02:10:08;14.18;;;8.07;;
3307;SDS011;1666;48.898;9.182;2023-04-15T02:12:41;12.82;;;7.93;;
3307;SDS011;1666;48.898;9.182;2023-04-15T02:15:11;12.73;;;8.55;;
3307;SDS011;1666;48.898;9.182;2023-04-15T02:17:41;14.05;;;7.47;;
3307;SDS011;1666;48.898;9.182;2023-04-15T02:20:17;14.00;;;7.43;;
3307;SDS011;1666;48.898;9.182;2023-04-15T02:22:47;11.85;;;7.57;;
3307;SDS011;1666;48.898;9.182;2023-04-15T02:25:17;12.90;;;7.40;;
3307;SDS011;1666;48.898;9.182;2023-04-15T02:27:50;12.60;;;6.90;;
3307;SDS011;1666;48.898;9.182;2023-04-15T02:30:21;12.80;;;7.43;;
3307;SDS011;1666;48.898;9.182;2023-04-15T02:32:52;11.93;;;6.65;;
3307;SDS011;1666;48.898;9.182;2023-04-15T02:35:22;15.60;;;7.65;;
3307;SDS011;1666;48.898;9.182;2023-04-15T02:37:52;11.63;;;7.28;;
3307;SDS011;1666;48.898;9.182;2023-04-15T02:40:22;11.65;;;7.25;;
3307;SDS011;1666;48.898;9.182;2023-04-15T02:42:55;10.93;;;7.10;;
3307;SDS011;1666;48.898;9.182;2023-04-15T02:45:25;12.23;;;7.03;;
3307;SDS011;1666;48.898;9.182;2023-04-15T02:47:56;14.13;;;7.20;;
3307;SDS011;1666;48.898;9.182;2023-04-15T02:50:29;11.93;;;6.85;;
3307;SDS011;1666;48.898;9.182;2023-04-15T02:52:59;13.60;;;7.15;;
3307;SDS011;1666;48.898;9.182;2023-04-15T02:55:30;12.32;;;6.95;;
3307;SDS011;1666;48.898;9.182;2023-04-15T02:58:03;12.10;;;7.65;;
3307;SDS011;1666;48.898;9.182;2023-04-15T03:00:33;11.98;;;6.75;;
3307;SDS011;1666;48.898;9.182;2023-04-15T03:03:03;13.50;;;6.90;;
3307;SDS011;1666;48.898;9.182;2023-04-15T03:05:34;11.93;;;7.57;;
3307;SDS011;1666;48.898;9.182;2023-04-15T03:08:04;10.23;;;6.97;;
3307;SDS011;1666;48.898;9.182;2023-04-15T03:10:34;11.15;;;7.07;;
3307;SDS011;1666;48.898;9.182;2023-04-15T03:13:07;12.18;;;7.32;;
3307;SDS011;1666;48.898;9.182;2023-04-15T03:15:37;17.00;;;8.02;;
3307;SDS011;1666;48.898;9.182;2023-04-15T03:18:07;13.63;;;7.93;;
3307;SDS011;1666;48.898;9.182;2023-04-15T03:20:37;14.05;;;7.38;;
3307;SDS011;1666;48.898;9.182;2023-04-15T03:23:07;13.32;;;8.32;;
3307;SDS011;1666;48.898;9.182;2023-04-15T03:25:37;11.95;;;7.30;;
3307;SDS011;1666;48.898;9.182;2023-04-15T03:28:09;11.10;;;7.40;;
3307;SDS011;1666;48.898;9.182;2023-04-15T03:30:39;13.90;;;7.35;;
3307;SDS011;1666;48.898;9.182;2023-04-15T03:33:09;12.70;;;7.43;;
3307;SDS011;1666;48.898;9.182;2023-04-15T03:35:39;10.95;;;7.20;;
3307;SDS011;1666;48.898;9.182;2023-04-15T03:38:09;13.57;;;8.15;;
3307;SDS011;1666;48.898;9.182;2023-04-15T03:40:39;11.43;;;7.20;;
3307;SDS011;1666;48.898;9.182;2023-04-15T03:43:12;12.07;;;7.97;;
3307;SDS011;1666;48.898;9.182;2023-04-15T03:45:42;9.90;;;6.82;;
3307;SDS011;1666;48.898;9.182;2023-04-15T03:48:12;14.57;;;7.95;;
3307;SDS011;1666;48.898;9.182;2023-04-15T03:50:43;13.80;;;8.05;;
3307;SDS011;1666;48.898;9.182;2023-04-15T03:53:13;11.40;;;7.22;;
3307;SDS011;1666;48.898;9.182;2023-04-15T03:55:43;10.38;;;7.80;;
3307;SDS011;1666;48.898;9.182;2023-04-15T03:58:16;16.67;;;8.75;;
3307;SDS011;1666;48.898;9.182;2023-04-15T04:00:46;15.65;;;8.00;;
3307;SDS011;1666;48.898;9.182;2023-04-15T04:03:16;16.02;;;8.77;;
3307;SDS011;1666;48.898;9.182;2023-04-15T04:05:46;18.90;;;8.82;;
3307;SDS011;1666;48.898;9.182;2023-04-15T04:08:16;14.57;;;8.05;;
3307;SDS011;1666;48.898;9.182;2023-04-15T04:10:47;13.60;;;7.95;;
3307;SDS011;1666;48.898;9.182;2023-04-15T04:13:19;17.13;;;7.70;;
3307;SDS011;1666;48.898;9.182;2023-04-15T04:15:49;20.90;;;11.10;;
3307;SDS011;1666;48.898;9.182;2023-04-15T04:18:19;17.42;;;9.60;;
3307;SDS011;1666;48.898;9.182;2023-04-15T04:20:49;14.18;;;7.97;;
3307;SDS011;1666;48.898;9.182;2023-04-15T04:23:19;14.52;;;8.07;;
3307;SDS011;1666;48.898;9.182;2023-04-15T04:25:49;12.80;;;7.38;;
3307;SDS011;1666;48.898;9.182;2023-04-15T04:28:21;13.02;;;8.25;;
3307;SDS011;1666;48.898;9.182;2023-04-15T04:30:51;15.80;;;7.68;;
3307;SDS011;1666;48.898;9.182;2023-04-15T04:33:21;13.13;;;8.10;;
3307;SDS011;1666;48.898;9.182;2023-04-15T04:35:51;14.60;;;6.95;;
3307;SDS011;1666;48.898;9.182;2023-04-15T04:38:21;14.27;;;7.88;;
3307;SDS011;1666;48.898;9.182;2023-04-15T04:40:51;11.15;;;7.85;;
3307;SDS011;1666;48.898;9.182;2023-04-15T04:43:24;11.93;;;7.60;;
3307;SDS011;1666;48.898;9.182;2023-04-15T04:45:53;12.45;;;7.93;;
3307;SDS011;1666;48.898;9.182;2023-04-15T04:48:23;14.50;;;8.38;;
3307;SDS011;1666;48.898;9.182;2023-04-15T04:50:53;10.10;;;7.22;;
3307;SDS011;1666;48.898;9.182;2023-04-15T04:53:23;10.85;;;7.15;;
3307;SDS011;1666;48.898;9.182;2023-04-15T04:55:53;14.98;;;8.13;;
3307;SDS011;1666;48.898;9.182;2023-04-15T04:58:26;11.73;;;7.50;;
3307;SDS011;1666;48.898;9.182;2023-04-15T05:00:56;11.77;;;7.80;;
3307;SDS011;1666;48.898;9.182;2023-04-15T05:03:26;12.80;;;7.35;;
3307;SDS011;1666;48.898;9.182;2023-04-15T05:05:56;15.88;;;7.70;;
3307;SDS011;1666;48.898;9.182;2023-04-15T05:08:26;16.60;;;7.30;;
3307;SDS011;1666;48.898;9.182;2023-04-15T05:10:56;10.23;;;6.65;;
3307;SDS011;1666;48.898;9.182;2023-04-15T05:13:28;12.80;;;6.95;;
3307;SDS011;1666;48.898;9.182;2023-04-15T05:15:58;14.30;;;8.00;;
3307;SDS011;1666;48.898;9.182;2023-04-15T05:18:28;14.48;;;7.95;;
3307;SDS011;1666;48.898;9.182;2023-04-15T05:20:59;16.27;;;8.25;;
3307;SDS011;1666;48.898;9.182;2023-04-15T05:23:30;13.88;;;8.00;;
3307;SDS011;1666;48.898;9.182;2023-04-15T05:26:00;14.15;;;8.52;;
3307;SDS011;1666;48.898;9.182;2023-04-15T05:28:32;12.63;;;7.85;;
3307;SDS011;1666;48.898;9.182;2023-04-15T05:31:02;19.40;;;9.90;;
3307;SDS011;1666;48.898;9.182;2023-04-15T05:33:32;13.32;;;8.82;;
3307;SDS011;1666;48.898;9.182;2023-04-15T05:36:02;11.52;;;7.88;;
3307;SDS011;1666;48.898;9.182;2023-04-15T05:38:32;12.00;;;7.93;;
3307;SDS011;1666;48.898;9.182;2023-04-15T05:41:02;14.05;;;8.38;;
3307;SDS011;1666;48.898;9.182;2023-04-15T05:43:35;18.60;;;8.90;;
3307;SDS011;1666;48.898;9.182;2023-04-15T05:46:05;13.75;;;7.88;;
3307;SDS011;1666;48.898;9.182;2023-04-15T05:48:35;11.50;;;7.65;;
3307;SDS011;1666;48.898;9.182;2023-04-15T05:51:05;11.27;;;7.88;;
3307;SDS011;1666;48.898;9.182;2023-04-15T05:53:35;14.05;;;8.25;;
3307;SDS011;1666;48.898;9.182;2023-04-15T05:56:06;14.80;;;8.70;;
3307;SDS011;1666;48.898;9.182;2023-04-15T05:58:39;10.68;;;7.47;;
3307;SDS011;1666;48.898;9.182;2023-04-15T06:01:08;14.50;;;8.00;;
3307;SDS011;1666;48.898;9.182;2023-04-15T06:03:38;14.15;;;7.93;;
3307;SDS011;1666;48.898;9.182;2023-04-15T06:06:09;13.25;;;7.55;;
3307;SDS011;1666;48.898;9.182;2023-04-15T06:08:39;13.38;;;7.65;;
3307;SDS011;1666;48.898;9.182;2023-04-15T06:11:09;13.23;;;7.70;;
3307;SDS011;1666;48.898;9.182;2023-04-15T06:13:41;15.02;;;7.75;;
3307;SDS011;1666;48.898;9.182;2023-04-15T06:16:11;15.65;;;7.70;;
3307;SDS011;1666;48.898;9.182;2023-04-15T06:18:41;11.60;;;7.00;;
3307;SDS011;1666;48.898;9.182;2023-04-15T06:21:11;14.30;;;6.70;;
3307;SDS011;1666;48.898;9.182;2023-04-15T06:23:41;14.73;;;7.25;;
3307;SDS011;1666;48.898;9.182;2023-04-15T06:26:11;12.90;;;6.47;;
3307;SDS011;1666;48.898;9.182;2023-04-15T06:28:43;13.68;;;8.05;;
3307;SDS011;1666;48.898;9.182;2023-04-15T06:31:13;12.15;;;7.47;;
3307;SDS011;1666;48.898;9.182;2023-04-15T06:33:43;11.60;;;7.63;;
3307;SDS011;1666;48.898;9.182;2023-04-15T06:36:13;19.77;;;11.07;;
3307;SDS011;1666;48.898;9.182;2023-04-15T06:38:43;24.33;;;12.63;;
3307;SDS011;1666;48.898;9.182;2023-04-15T06:41:13;18.80;;;9.45;;
3307;SDS011;1666;48.898;9.182;2023-04-15T06:43:45;16.58;;;9.52;;
3307;SDS011;1666;48.898;9.182;2023-04-15T06:46:15;13.60;;;8.00;;
3307;SDS011;1666;48.898;9.182;2023-04-15T06:48:45;13.98;;;7.32;;
3307;SDS011;1666;48.898;9.182;2023-04-15T06:51:15;11.00;;;7.47;;
3307;SDS011;1666;48.898;9.182;2023-04-15T06:53:45;13.05;;;7.30;;
3307;SDS011;1666;48.898;9.182;2023-04-15T06:56:15;8.30;;;5.70;;
3307;SDS011;1666;48.898;9.182;2023-04-15T06:58:47;11.50;;;6.32;;
3307;SDS011;1666;48.898;9.182;2023-04-15T07:01:17;13.40;;;6.63;;
3307;SDS011;1666;48.898;9.182;2023-04-15T07:03:48;12.60;;;6.78;;
3307;SDS011;1666;48.898;9.182;2023-04-15T07:06:18;12.05;;;6.63;;
3307;SDS011;1666;48.898;9.182;2023-04-15T07:08:47;9.63;;;6.50;;
3307;SDS011;1666;48.898;9.182;2023-04-15T07:11:17;10.60;;;6.63;;
3307;SDS011;1666;48.898;9.182;2023-04-15T07:13:50;9.05;;;6.43;;
3307;SDS011;1666;48.898;9.182;2023-04-15T07:16:20;10.20;;;6.43;;
3307;SDS011;1666;48.898;9.182;2023-04-15T07:18:53;9.77;;;6.07;;
3307;SDS011;1666;48.898;9.182;2023-04-15T07:21:23;8.13;;;5.70;;
3307;SDS011;1666;48.898;9.182;2023-04-15T07:23:55;10.35;;;5.93;;
3307;SDS011;1666;48.898;9.182;2023-04-15T07:26:26;19.00;;;6.60;;
3307;SDS011;1666;48.898;9.182;2023-04-15T07:28:58;8.15;;;6.22;;
3307;SDS011;1666;48.898;9.182;2023-04-15T07:31:29;12.35;;;6.47;;
3307;SDS011;1666;48.898;9.182;2023-04-15T07:33:59;10.63;;;6.40;;
3307;SDS011;1666;48.898;9.182;2023-04-15T07:36:29;9.88;;;5.88;;
3307;SDS011;1666;48.898;9.182;2023-04-15T07:38:58;13.23;;;7.25;;
3307;SDS011;1666;48.898;9.182;2023-04-15T07:41:29;9.90;;;5.93;;
3307;SDS011;1666;48.898;9.182;2023-04-15T07:44:02;11.70;;;6.93;;
3307;SDS011;1666;48.898;9.182;2023-04-15T07:46:32;11.38;;;7.32;;
3307;SDS011;1666;48.898;9.182;2023-04-15T07:49:02;10.73;;;6.70;;
3307;SDS011;1666;48.898;9.182;2023-04-15T07:51:33;15.88;;;7.63;;
3307;SDS011;1666;48.898;9.182;2023-04-15T07:54:02;13.10;;;7.32;;
3307;SDS011;1666;48.898;9.182;2023-04-15T07:56:33;10.60;;;6.85;;
3307;SDS011;1666;48.898;9.182;2023-04-15T07:59:05;14.50;;;7.03;;
3307;SDS011;1666;48.898;9.182;2023-04-15T08:01:35;15.00;;;6.47;;
3307;SDS011;1666;48.898;9.182;2023-04-15T08:04:05;9.35;;;6.57;;
3307;SDS011;1666;48.898;9.182;2023-04-15T08:06:36;12.15;;;6.70;;
3307;SDS011;1666;48.898;9.182;2023-04-15T08:09:06;11.75;;;6.30;;
3307;SDS011;1666;48.898;9.182;2023-04-15T08:11:36;14.10;;;6.50;;
3307;SDS011;1666;48.898;9.182;2023-04-15T08:14:08;9.73;;;6.82;;
3307;SDS011;1666;48.898;9.182;2023-04-15T08:16:38;16.08;;;6.32;;
3307;SDS011;1666;48.898;9.182;2023-04-15T08:19:08;12.55;;;6.22;;
3307;SDS011;1666;48.898;9.182;2023-04-15T08:21:38;7.78;;;5.30;;
3307;SDS011;1666;48.898;9.182;2023-04-15T08:24:08;12.32;;;5.63;;
3307;SDS011;1666;48.898;9.182;2023-04-15T08:26:38;7.10;;;4.45;;
3307;SDS011;1666;48.898;9.182;2023-04-15T08:29:11;11.32;;;4.35;;
3307;SDS011;1666;48.898;9.182;2023-04-15T08:31:41;8.13;;;4.63;;
3307;SDS011;1666;48.898;9.182;2023-04-15T08:34:11;8.20;;;4.60;;
3307;SDS011;1666;48.898;9.182;2023-04-15T08:36:41;9.32;;;4.65;;
3307;SDS011;1666;48.898;9.182;2023-04-15T08:39:11;7.43;;;4.40;;
3307;SDS011;1666;48.898;9.182;2023-04-15T08:41:44;9.48;;;4.63;;
3307;SDS011;1666;48.898;9.182;2023-04-15T08:44:18;8.63;;;4.13;;
3307;SDS011;1666;48.898;9.182;2023-04-15T08:46:49;5.72;;;4.00;;
3307;SDS011;1666;48.898;9.182;2023-04-15T08:49:21;7.57;;;4.47;;
3307;SDS011;1666;48.898;9.182;2023-04-15T08:51:55;10.30;;;4.78;;
3307;SDS011;1666;48.898;9.182;2023-04-15T08:54:28;8.00;;;4.13;;
3307;SDS011;1666;48.898;9.182;2023-04-15T08:56:58;7.47;;;4.65;;
3307;SDS011;1666;48.898;9.182;2023-04-15T08:59:31;7.28;;;4.57;;
3307;SDS011;1666;48.898;9.182;2023-04-15T09:02:01;8.15;;;4.75;;
3307;SDS011;1666;48.898;9.182;2023-04-15T09:04:32;10.02;;;4.75;;
3307;SDS011;1666;48.898;9.182;2023-04-15T09:07:02;9.02;;;5.13;;
3307;SDS011;1666;48.898;9.182;2023-04-15T09:09:32;8.27;;;4.88;;
3307;SDS011;1666;48.898;9.182;2023-04-15T09:12:05;7.43;;;4.32;;
3307;SDS011;1666;48.898;9.182;2023-04-15T09:14:40;5.22;;;4.28;;
3307;SDS011;1666;48.898;9.182;2023-04-15T09:19:41;7.03;;;5.00;;
3307;SDS011;1666;48.898;9.182;2023-04-15T09:22:11;7.03;;;4.05;;
3307;SDS011;1666;48.898;9.182;2023-04-15T09:24:42;7.88;;;4.57;;
3307;SDS011;1666;48.898;9.182;2023-04-15T09:27:12;8.20;;;4.95;;
3307;SDS011;1666;48.898;9.182;2023-04-15T09:29:47;6.20;;;4.30;;
3307;SDS011;1666;48.898;9.182;2023-04-15T09:32:18;7.68;;;4.53;;
3307;SDS011;1666;48.898;9.182;2023-04-15T09:34:50;7.05;;;4.60;;
3307;SDS011;1666;48.898;9.182;2023-04-15T09:37:23;4.80;;;3.97;;
3307;SDS011;1666;48.898;9.182;2023-04-15T09:40:04;8.80;;;4.15;;
3307;SDS011;1666;48.898;9.182;2023-04-15T09:42:35;5.80;;;3.88;;
3307;SDS011;1666;48.898;9.182;2023-04-15T09:45:11;6.97;;;4.57;;
3307;SDS011;1666;48.898;9.182;2023-04-15T09:47:41;4.80;;;3.97;;
3307;SDS011;1666;48.898;9.182;2023-04-15T09:50:11;6.03;;;4.18;;
3307;SDS011;1666;48.898;9.182;2023-04-15T09:52:41;7.05;;;3.60;;
3307;SDS011;1666;48.898;9.182;2023-04-15T09:55:12;6.78;;;3.88;;
3307;SDS011;1666;48.898;9.182;2023-04-15T09:57:44;6.20;;;3.65;;
3307;SDS011;1666;48.898;9.182;2023-04-15T10:00:17;7.18;;;3.53;;
3307;SDS011;1666;48.898;9.182;2023-04-15T10:02:47;6.88;;;3.50;;
3307;SDS011;1666;48.898;9.182;2023-04-15T10:05:17;5.45;;;3.35;;
3307;SDS011;1666;48.898;9.182;2023-04-15T10:07:49;5.57;;;3.00;;
3307;SDS011;1666;48.898;9.182;2023-04-15T10:10:19;7.95;;;3.17;;
3307;SDS011;1666;48.898;9.182;2023-04-15T10:12:49;6.88;;;3.30;;
3307;SDS011;1666;48.898;9.182;2023-04-15T10:15:25;5.55;;;3.28;;
3307;SDS011;1666;48.898;9.182;2023-04-15T10:17:58;6.07;;;3.55;;
3307;SDS011;1666;48.898;9.182;2023-04-15T10:20:29;3.80;;;2.90;;
3307;SDS011;1666;48.898;9.182;2023-04-15T10:22:59;10.00;;;3.42;;
3307;SDS011;1666;48.898;9.182;2023-04-15T10:25:32;5.13;;;3.22;;
3307;SDS011;1666;48.898;9.182;2023-04-15T10:28:02;5.95;;;3.20;;
3307;SDS011;1666;48.898;9.182;2023-04-15T10:30:36;3.92;;;3.03;;
3307;SDS011;1666;48.898;9.182;2023-04-15T10:33:06;7.03;;;3.50;;
3307;SDS011;1666;48.898;9.182;2023-04-15T10:35:38;7.32;;;3.35;;
3307;SDS011;1666;48.898;9.182;2023-04-15T10:41:13;5.60;;;3.38;;
3307;SDS011;1666;48.898;9.182;2023-04-15T10:43:47;6.40;;;3.40;;
3307;SDS011;1666;48.898;9.182;2023-04-15T10:46:22;6.45;;;3.05;;
3307;SDS011;1666;48.898;9.182;2023-04-15T10:48:54;6.97;;;4.03;;
3307;SDS011;1666;48.898;9.182;2023-04-15T10:51:28;5.10;;;3.10;;
3307;SDS011;1666;48.898;9.182;2023-04-15T10:53:59;9.95;;;3.92;;
3307;SDS011;1666;48.898;9.182;2023-04-15T10:56:29;8.32;;;4.32;;
3307;SDS011;1666;48.898;9.182;2023-04-15T10:58:59;6.00;;;4.28;;
3307;SDS011;1666;48.898;9.182;2023-04-15T11:13:22;8.00;;;4.93;;
3307;SDS011;1666;48.898;9.182;2023-04-15T11:15:57;6.65;;;4.80;;
3307;SDS011;1666;48.898;9.182;2023-04-15T11:18:32;6.25;;;4.75;;
3307;SDS011;1666;48.898;9.182;2023-04-15T11:23:36;9.43;;;4.38;;
3307;SDS011;1666;48.898;9.182;2023-04-15T11:26:09;7.32;;;4.25;;
3307;SDS011;1666;48.898;9.182;2023-04-15T11:28:41;6.90;;;4.00;;
3307;SDS011;1666;48.898;9.182;2023-04-15T11:31:12;7.47;;;4.38;;
3307;SDS011;1666;48.898;9.182;2023-04-15T11:33:52;9.23;;;3.97;;
3307;SDS011;1666;48.898;9.182;2023-04-15T11:36:24;8.63;;;3.92;;
3307;SDS011;1666;48.898;9.182;2023-04-15T11:38:56;5.18;;;3.50;;
3307;SDS011;1666;48.898;9.182;2023-04-15T11:41:27;6.00;;;3.17;;
3307;SDS011;1666;48.898;9.182;2023-04-15T11:43:57;5.43;;;2.92;;
3307;SDS011;1666;48.898;9.182;2023-04-15T11:46:27;3.83;;;2.75;;
3307;SDS011;1666;48.898;9.182;2023-04-15T11:49:01;4.20;;;2.47;;
3307;SDS011;1666;48.898;9.182;2023-04-15T11:51:31;4.95;;;2.88;;
3307;SDS011;1666;48.898;9.182;2023-04-15T11:54:02;4.60;;;2.97;;
3307;SDS011;1666;48.898;9.182;2023-04-15T11:56:32;5.18;;;2.90;;
3307;SDS011;1666;48.898;9.182;2023-04-15T11:59:02;4.05;;;3.05;;
3307;SDS011;1666;48.898;9.182;2023-04-15T12:01:32;5.53;;;3.40;;
3307;SDS011;1666;48.898;9.182;2023-04-15T12:04:12;7.05;;;3.08;;
3307;SDS011;1666;48.898;9.182;2023-04-15T12:06:48;5.70;;;3.23;;
3307;SDS011;1666;48.898;9.182;2023-04-15T12:09:18;6.13;;;3.10;;
3307;SDS011;1666;48.898;9.182;2023-04-15T12:11:50;5.03;;;2.90;;
3307;SDS011;1666;48.898;9.182;2023-04-15T12:14:22;4.15;;;2.70;;
3307;SDS011;1666;48.898;9.182;2023-04-15T12:16:56;5.60;;;3.35;;
3307;SDS011;1666;48.898;9.182;2023-04-15T12:19:30;8.50;;;4.55;;
3307;SDS011;1666;48.898;9.182;2023-04-15T12:22:05;8.35;;;5.43;;
3307;SDS011;1666;48.898;9.182;2023-04-15T12:24:37;10.52;;;4.90;;
3307;SDS011;1666;48.898;9.182;2023-04-15T12:27:09;8.13;;;5.03;;
3307;SDS011;1666;48.898;9.182;2023-04-15T12:29:41;9.50;;;4.68;;
3307;SDS011;1666;48.898;9.182;2023-04-15T12:32:11;4.40;;;2.65;;
3307;SDS011;1666;48.898;9.182;2023-04-15T12:34:50;4.07;;;2.40;;
3307;SDS011;1666;48.898;9.182;2023-04-15T12:37:22;3.60;;;2.60;;
3307;SDS011;1666;48.898;9.182;2023-04-15T12:39:51;5.57;;;2.60;;
3307;SDS011;1666;48.898;9.182;2023-04-15T12:42:22;5.05;;;2.47;;
3307;SDS011;1666;48.898;9.182;2023-04-15T12:44:51;5.72;;;2.65;;
3307;SDS011;1666;48.898;9.182;2023-04-15T12:47:22;4.72;;;2.63;;
3307;SDS011;1666;48.898;9.182;2023-04-15T12:49:54;4.95;;;3.00;;
3307;SDS011;1666;48.898;9.182;2023-04-15T12:52:24;7.05;;;3.50;;
3307;SDS011;1666;48.898;9.182;2023-04-15T12:54:54;5.32;;;2.70;;
3307;SDS011;1666;48.898;9.182;2023-04-15T12:57:25;5.57;;;3.08;;
3307;SDS011;1666;48.898;9.182;2023-04-15T12:59:55;7.05;;;3.08;;
3307;SDS011;1666;48.898;9.182;2023-04-15T13:02:25;6.90;;;3.53;;
3307;SDS011;1666;48.898;9.182;2023-04-15T13:04:58;8.57;;;3.25;;
3307;SDS011;1666;48.898;9.182;2023-04-15T13:07:28;6.10;;;3.05;;
3307;SDS011;1666;48.898;9.182;2023-04-15T13:09:58;5.47;;;2.97;;
3307;SDS011;1666;48.898;9.182;2023-04-15T13:12:28;5.28;;;2.95;;
3307;SDS011;1666;48.898;9.182;2023-04-15T13:15:01;5.30;;;1.85;;
3307;SDS011;1666;48.898;9.182;2023-04-15T13:17:31;4.65;;;2.25;;
3307;SDS011;1666;48.898;9.182;2023-04-15T13:20:04;3.05;;;1.60;;
3307;SDS011;1666;48.898;9.182;2023-04-15T13:22:35;2.35;;;1.15;;
3307;SDS011;1666;48.898;9.182;2023-04-15T13:25:05;2.05;;;0.90;;
3307;SDS011;1666;48.898;9.182;2023-04-15T13:27:37;1.25;;;0.70;;
3307;SDS011;1666;48.898;9.182;2023-04-15T13:30:07;1.52;;;0.93;;
3307;SDS011;1666;48.898;9.182;2023-04-15T13:32:38;1.15;;;0.80;;
3307;SDS011;1666;48.898;9.182;2023-04-15T13:35:10;2.28;;;1.02;;
3307;SDS011;1666;48.898;9.182;2023-04-15T13:37:40;2.10;;;0.90;;
3307;SDS011;1666;48.898;9.182;2023-04-15T13:40:10;1.60;;;1.00;;
3307;SDS011;1666;48.898;9.182;2023-04-15T13:42:40;3.92;;;0.90;;
3307;SDS011;1666;48.898;9.182;2023-04-15T13:45:11;3.40;;;1.20;;
3307;SDS011;1666;48.898;9.182;2023-04-15T13:47:41;2.35;;;1.00;;
3307;SDS011;1666;48.898;9.182;2023-04-15T13:50:14;2.45;;;1.30;;
3307;SDS011;1666;48.898;9.182;2023-04-15T13:52:44;2.92;;;1.20;;
3307;SDS011;1666;48.898;9.182;2023-04-15T13:55:14;3.13;;;1.15;;
3307;SDS011;1666;48.898;9.182;2023-04-15T13:57:48;5.00;;;1.52;;
3307;SDS011;1666;48.898;9.182;2023-04-15T14:00:18;2.13;;;1.15;;
3307;SDS011;1666;48.898;9.182;2023-04-15T14:02:49;2.22;;;1.08;;
3307;SDS011;1666;48.898;9.182;2023-04-15T14:05:21;1.75;;;1.20;;
3307;SDS011;1666;48.898;9.182;2023-04-15T14:07:51;1.92;;;0.90;;
3307;SDS011;1666;48.898;9.182;2023-04-15T14:10:21;2.17;;;0.90;;
3307;SDS011;1666;48.898;9.182;2023-04-15T14:12:51;1.15;;;1.00;;
3307;SDS011;1666;48.898;9.182;2023-04-15T14:15:21;2.80;;;1.17;;
3307;SDS011;1666;48.898;9.182;2023-04-15T14:17:51;2.75;;;1.27;;
3307;SDS011;1666;48.898;9.182;2023-04-15T14:20:25;3.22;;;1.42;;
3307;SDS011;1666;48.898;9.182;2023-04-15T14:22:55;3.63;;;1.30;;
3307;SDS011;1666;48.898;9.182;2023-04-15T14:25:25;1.98;;;1.15;;
3307;SDS011;1666;48.898;9.182;2023-04-15T14:30:29;1.60;;;1.10;;
3307;SDS011;1666;48.898;9.182;2023-04-15T14:32:59;6.85;;;1.77;;
3307;SDS011;1666;48.898;9.182;2023-04-15T14:35:32;5.60;;;1.38;;
3307;SDS011;1666;48.898;9.182;2023-04-15T14:38:02;1.63;;;1.08;;
3307;SDS011;1666;48.898;9.182;2023-04-15T14:40:36;2.97;;;1.23;;
3307;SDS011;1666;48.898;9.182;2023-04-15T14:43:06;2.75;;;1.10;;
3307;SDS011;1666;48.898;9.182;2023-04-15T14:45:36;1.88;;;1.15;;
3307;SDS011;1666;48.898;9.182;2023-04-15T14:48:11;2.15;;;1.17;;
3307;SDS011;1666;48.898;9.182;2023-04-15T14:50:44;2.97;;;1.15;;
3307;SDS011;1666;48.898;9.182;2023-04-15T14:53:14;1.95;;;1.30;;
3307;SDS011;1666;48.898;9.182;2023-04-15T14:55:44;3.30;;;1.30;;
3307;SDS011;1666;48.898;9.182;2023-04-15T14:58:14;2.03;;;1.17;;
3307;SDS011;1666;48.898;9.182;2023-04-15T15:00:44;2.95;;;1.30;;
3307;SDS011;1666;48.898;9.182;2023-04-15T15:03:14;3.30;;;1.20;;
3307;SDS011;1666;48.898;9.182;2023-04-15T15:05:47;2.53;;;1.50;;
3307;SDS011;1666;48.898;9.182;2023-04-15T15:08:17;3.95;;;1.50;;
3307;SDS011;1666;48.898;9.182;2023-04-15T15:10:47;2.25;;;1.52;;
3307;SDS011;1666;48.898;9.182;2023-04-15T15:13:17;2.88;;;1.30;;
3307;SDS011;1666;48.898;9.182;2023-04-15T15:15:47;2.42;;;1.10;;
3307;SDS011;1666;48.898;9.182;2023-04-15T15:18:17;2.25;;;1.30;;
3307;SDS011;1666;48.898;9.182;2023-04-15T15:20:50;3.47;;;1.20;;
3307;SDS011;1666;48.898;9.182;2023-04-15T15:23:19;3.53;;;1.42;;
3307;SDS011;1666;48.898;9.182;2023-04-15T15:25:49;1.90;;;1.33;;
3307;SDS011;1666;48.898;9.182;2023-04-15T15:28:19;2.00;;;1.08;;
3307;SDS011;1666;48.898;9.182;2023-04-15T15:30:49;1.80;;;1.33;;
3307;SDS011;1666;48.898;9.182;2023-04-15T15:33:19;4.68;;;1.42;;
3307;SDS011;1666;48.898;9.182;2023-04-15T15:35:52;4.00;;;1.30;;
3307;SDS011;1666;48.898;9.182;2023-04-15T15:38:22;2.40;;;1.23;;
3307;SDS011;1666;48.898;9.182;2023-04-15T15:40:52;2.25;;;1.38;;
3307;SDS011;1666;48.898;9.182;2023-04-15T15:43:22;2.53;;;1.55;;
3307;SDS011;1666;48.898;9.182;2023-04-15T15:45:51;2.60;;;1.92;;
3307;SDS011;1666;48.898;9.182;2023-04-15T15:48:22;2.58;;;1.60;;
3307;SDS011;1666;48.898;9.182;2023-04-15T15:50:55;4.18;;;1.58;;
3307;SDS011;1666;48.898;9.182;2023-04-15T15:53:25;5.32;;;2.50;;